Time;durP1;ratioP1;P1;durP2;ratioP2;P2;SDS_P1;SDS_P2;PMS_P1;PMS_P2;Temp;Humidity;BMP_temperature;BMP_pressure;BME280_temperature;BME280_humidity;BME280_pressure;Samples;Min_cycle;Max_cycle;Signal;HPM_P1;HPM_P2
2021/08/14 00:00:09;;;;;;;15.50;4.55;;;17.30;99.90;;;;;;5054590;28;20041;-74
2021/08/14 00:02:34;;;;;;;21.33;4.40;;;17.30;99.90;;;;;;5051785;28;20087;-73
2021/08/14 00:05:01;;;;;;;19.85;3.92;;;17.40;99.90;;;;;;5052105;28;20044;-73
2021/08/14 00:07:27;;;;;;;16.33;3.87;;;17.30;99.90;;;;;;5055299;28;20024;-72
2021/08/14 00:09:52;;;;;;;18.70;3.78;;;17.30;99.90;;;;;;5053462;28;20380;-72
2021/08/14 00:12:18;;;;;;;22.02;4.68;;;17.40;99.90;;;;;;5054435;28;20061;-72
2021/08/14 00:14:44;;;;;;;17.15;3.60;;;17.40;99.90;;;;;;5058585;28;20424;-72
2021/08/14 00:17:09;;;;;;;11.52;3.53;;;17.50;99.90;;;;;;5051780;28;20037;-72
2021/08/14 00:19:35;;;;;;;23.30;4.53;;;17.50;99.90;;;;;;5050289;28;20029;-72
2021/08/14 00:22:00;;;;;;;17.55;3.88;;;17.50;99.90;;;;;;5053537;28;20116;-71
2021/08/14 00:24:26;;;;;;;16.45;3.60;;;17.50;99.90;;;;;;5053806;28;20439;-72
2021/08/14 00:26:51;;;;;;;18.08;4.60;;;17.50;99.90;;;;;;5057282;28;20021;-71
2021/08/14 00:29:18;;;;;;;16.50;4.20;;;17.50;99.90;;;;;;5054013;28;20104;-71
2021/08/14 00:31:43;;;;;;;14.35;3.95;;;17.50;99.90;;;;;;5053479;28;20025;-71
2021/08/14 00:34:09;;;;;;;10.82;3.28;;;17.50;99.90;;;;;;5052954;28;22033;-74
2021/08/14 00:36:36;;;;;;;11.68;3.65;;;17.50;99.90;;;;;;5053099;28;20028;-71
2021/08/14 00:39:02;;;;;;;14.65;3.83;;;17.50;99.90;;;;;;5050468;28;20347;-71
2021/08/14 00:41:32;;;;;;;16.48;4.05;;;17.50;99.90;;;;;;5065884;28;20021;-71
2021/08/14 00:44:02;;;;;;;24.90;3.53;;;17.60;99.90;;;;;;5053240;28;20021;-72
2021/08/14 00:46:31;;;;;;;15.07;4.60;;;17.60;99.90;;;;;;5049707;28;20044;-71
2021/08/14 00:48:58;;;;;;;25.38;5.63;;;17.60;99.90;;;;;;5070030;28;20041;-73
2021/08/14 00:51:24;;;;;;;22.65;4.13;;;17.60;99.90;;;;;;5048470;28;20066;-71
2021/08/14 00:53:50;;;;;;;11.75;3.83;;;17.60;99.90;;;;;;5053363;28;20102;-71
2021/08/14 00:56:20;;;;;;;15.60;4.03;;;17.50;99.90;;;;;;5053924;28;20029;-71
2021/08/14 00:58:46;;;;;;;18.40;3.97;;;17.50;99.90;;;;;;5053476;28;20024;-73
2021/08/14 01:01:12;;;;;;;15.75;4.15;;;17.50;99.90;;;;;;5047203;28;20388;-71
2021/08/14 01:03:37;;;;;;;22.92;5.72;;;17.50;99.90;;;;;;5051099;28;20037;-71
2021/08/14 01:06:03;;;;;;;15.65;5.22;;;17.50;99.90;;;;;;5054451;28;20020;-71
2021/08/14 01:08:28;;;;;;;16.27;3.97;;;17.50;99.90;;;;;;5053513;28;20485;-71
2021/08/14 01:10:54;;;;;;;19.55;4.75;;;17.50;99.90;;;;;;5049288;28;20036;-71
2021/08/14 01:13:21;;;;;;;12.57;3.83;;;17.50;99.90;;;;;;5051498;28;20056;-71
2021/08/14 01:15:48;;;;;;;17.75;4.05;;;17.50;99.90;;;;;;5051320;28;20048;-71
2021/08/14 01:18:15;;;;;;;19.92;4.05;;;17.50;99.90;;;;;;5047645;28;20045;-71
2021/08/14 01:20:42;;;;;;;;;;;17.50;99.90;;;;;;5051269;28;20021;-71
2021/08/14 01:23:09;;;;;;;20.47;4.10;;;17.50;99.90;;;;;;5053185;28;19943;-71
2021/08/14 01:25:34;;;;;;;17.42;4.15;;;17.50;99.90;;;;;;5055536;28;20025;-71
2021/08/14 01:28:00;;;;;;;19.90;5.97;;;17.40;99.90;;;;;;5052345;28;20504;-71
2021/08/14 01:30:26;;;;;;;13.55;4.28;;;17.40;99.90;;;;;;5050887;28;20059;-72
2021/08/14 01:32:52;;;;;;;20.85;4.72;;;17.50;99.90;;;;;;5049508;28;20017;-73
2021/08/14 01:35:18;;;;;;;15.63;4.03;;;17.40;99.90;;;;;;5050313;28;20162;-71
2021/08/14 01:37:44;;;;;;;19.73;4.50;;;17.40;99.90;;;;;;5048338;28;20022;-71
2021/08/14 01:40:09;;;;;;;15.50;4.47;;;17.50;99.90;;;;;;5050846;28;20021;-73
2021/08/14 01:42:35;;;;;;;12.48;3.80;;;17.50;99.90;;;;;;5052668;28;20112;-71
2021/08/14 01:45:01;;;;;;;15.60;3.80;;;17.50;99.90;;;;;;5050620;28;20025;-71
2021/08/14 01:47:26;;;;;;;11.40;3.47;;;17.50;99.90;;;;;;5052928;28;20025;-71
2021/08/14 01:49:52;;;;;;;22.95;4.65;;;17.50;99.90;;;;;;5052771;28;20464;-73
2021/08/14 01:52:18;;;;;;;11.90;3.45;;;17.50;99.90;;;;;;5050094;28;20118;-72
2021/08/14 01:54:45;;;;;;;28.85;6.03;;;17.50;99.90;;;;;;5050783;28;20020;-72
2021/08/14 01:57:11;;;;;;;16.17;5.53;;;17.50;99.90;;;;;;5053812;28;20532;-71
2021/08/14 01:59:37;;;;;;;17.98;4.03;;;17.50;99.90;;;;;;5065960;28;20120;-72
2021/08/14 02:02:05;;;;;;;17.20;4.88;;;17.50;99.90;;;;;;5053127;28;20108;-72
2021/08/14 02:04:31;;;;;;;15.93;4.32;;;17.50;99.90;;;;;;5051806;28;20078;-72
2021/08/14 02:06:57;;;;;;;23.00;7.22;;;17.50;99.90;;;;;;5051231;28;20025;-71
2021/08/14 02:09:23;;;;;;;13.07;3.85;;;17.50;99.90;;;;;;5052338;28;20033;-71
2021/08/14 02:11:49;;;;;;;19.88;5.00;;;17.50;99.90;;;;;;5054185;28;20072;-72
2021/08/14 02:14:16;;;;;;;15.98;5.93;;;17.40;99.90;;;;;;5051671;28;20024;-71
2021/08/14 02:16:42;;;;;;;18.77;3.80;;;17.50;99.90;;;;;;5051224;28;20013;-71
2021/08/14 02:19:08;;;;;;;14.73;4.05;;;17.40;99.90;;;;;;5050430;28;20024;-71
2021/08/14 02:21:33;;;;;;;17.27;4.95;;;17.40;99.90;;;;;;5051652;28;20377;-72
2021/08/14 02:23:59;;;;;;;21.15;4.95;;;17.40;99.90;;;;;;5049455;28;20033;-71
2021/08/14 02:26:25;;;;;;;19.08;4.25;;;17.40;99.90;;;;;;5049609;28;20025;-71
2021/08/14 02:28:52;;;;;;;23.83;5.40;;;17.40;99.90;;;;;;5049784;28;20103;-71
2021/08/14 02:31:18;;;;;;;21.80;5.70;;;17.30;99.90;;;;;;5050682;28;20029;-71
2021/08/14 02:33:43;;;;;;;23.67;5.40;;;17.30;99.90;;;;;;5051450;28;20052;-73
2021/08/14 02:36:10;;;;;;;33.30;7.65;;;17.30;99.90;;;;;;5049758;28;20043;-72
2021/08/14 02:38:37;;;;;;;15.75;4.70;;;17.30;99.90;;;;;;5051239;28;20027;-73
2021/08/14 02:41:04;;;;;;;17.73;5.80;;;17.30;99.90;;;;;;5051018;28;20490;-71
2021/08/14 02:43:30;;;;;;;12.65;4.88;;;17.30;99.90;;;;;;5053775;28;20048;-72
2021/08/14 02:46:00;;;;;;;18.55;4.38;;;17.30;99.90;;;;;;5049161;28;20462;-72
2021/08/14 02:48:26;;;;;;;14.13;4.10;;;17.30;99.90;;;;;;5049809;28;20040;-71
2021/08/14 02:50:52;;;;;;;28.67;6.45;;;17.30;99.90;;;;;;5051525;28;20052;-72
2021/08/14 02:53:17;;;;;;;19.67;5.18;;;17.30;99.90;;;;;;5050291;28;20068;-72
2021/08/14 02:55:43;;;;;;;27.38;5.35;;;17.30;99.90;;;;;;5049066;28;20029;-72
2021/08/14 02:58:09;;;;;;;25.13;5.57;;;17.30;99.90;;;;;;5050531;28;20025;-72
2021/08/14 03:00:35;;;;;;;18.67;5.18;;;17.30;99.90;;;;;;5050257;28;20045;-72
2021/08/14 03:03:00;;;;;;;11.65;4.47;;;17.30;99.90;;;;;;5049567;28;20112;-72
2021/08/14 03:05:26;;;;;;;15.52;4.60;;;17.30;99.90;;;;;;5054601;28;20088;-74
2021/08/14 03:07:52;;;;;;;12.95;5.60;;;17.20;99.90;;;;;;5050358;28;20025;-72
2021/08/14 03:10:40;;;;;;;16.30;4.43;;;17.20;99.90;;;;;;5051849;28;20029;-71
2021/08/14 03:13:07;;;;;;;14.52;4.57;;;17.30;99.90;;;;;;5051648;28;20067;-73
2021/08/14 03:15:34;;;;;;;;;;;17.20;99.90;;;;;;5054244;28;20397;-73
2021/08/14 03:17:59;;;;;;;18.10;5.30;;;17.20;99.90;;;;;;5053195;28;19913;-72
2021/08/14 03:20:25;;;;;;;17.42;5.00;;;17.20;99.90;;;;;;5052516;28;20427;-72
2021/08/14 03:22:51;;;;;;;26.83;5.63;;;17.20;99.90;;;;;;5052473;28;20029;-72
2021/08/14 03:25:16;;;;;;;18.77;4.97;;;17.20;99.90;;;;;;5056009;28;20072;-72
2021/08/14 03:27:42;;;;;;;18.33;5.63;;;17.10;99.90;;;;;;5052382;28;20054;-72
2021/08/14 03:30:08;;;;;;;23.90;5.60;;;17.10;99.90;;;;;;5054683;28;20114;-72
2021/08/14 03:32:34;;;;;;;21.75;4.55;;;17.10;99.90;;;;;;5053336;28;20028;-73
2021/08/14 03:34:59;;;;;;;16.80;4.57;;;17.10;99.90;;;;;;5052294;28;20485;-73
2021/08/14 03:37:25;;;;;;;16.48;5.07;;;17.10;99.90;;;;;;5052499;28;20024;-73
2021/08/14 03:39:51;;;;;;;16.17;4.75;;;17.10;99.90;;;;;;5052317;28;20017;-72
2021/08/14 03:42:16;;;;;;;23.52;5.97;;;17.00;99.90;;;;;;5051874;28;20465;-72
2021/08/14 03:44:42;;;;;;;16.50;5.18;;;17.00;99.90;;;;;;5054732;28;20048;-71
2021/08/14 03:47:08;;;;;;;25.08;5.43;;;17.00;99.90;;;;;;5055728;28;20031;-73
2021/08/14 03:49:33;;;;;;;13.63;4.68;;;17.00;99.90;;;;;;5053554;28;20066;-72
2021/08/14 03:51:59;;;;;;;15.10;5.15;;;17.00;99.90;;;;;;5052481;28;20040;-72
2021/08/14 03:54:25;;;;;;;16.13;4.43;;;17.00;99.90;;;;;;5054591;28;20104;-72
2021/08/14 03:56:52;;;;;;;20.55;5.53;;;17.00;99.90;;;;;;5053472;28;20041;-71
2021/08/14 03:59:18;;;;;;;16.65;5.07;;;17.00;99.90;;;;;;5054719;28;20064;-71
2021/08/14 04:01:44;;;;;;;12.55;4.78;;;17.00;99.90;;;;;;5053069;28;20049;-72
2021/08/14 04:04:09;;;;;;;17.88;4.78;;;16.90;99.90;;;;;;5053071;28;20098;-71
2021/08/14 04:06:35;;;;;;;20.40;6.40;;;16.90;99.90;;;;;;5053386;28;20402;-72
2021/08/14 04:09:00;;;;;;;21.83;5.13;;;16.90;99.90;;;;;;5052672;28;20115;-74
2021/08/14 04:11:26;;;;;;;19.95;4.10;;;16.90;99.90;;;;;;5052642;28;20036;-74
2021/08/14 04:13:51;;;;;;;16.58;5.55;;;16.90;99.90;;;;;;5054557;28;20111;-72
2021/08/14 04:16:17;;;;;;;19.52;5.53;;;16.90;99.90;;;;;;5054383;28;20017;-71
2021/08/14 04:18:43;;;;;;;15.85;4.18;;;16.90;99.90;;;;;;5053925;28;20032;-71
2021/08/14 04:21:08;;;;;;;16.58;4.68;;;16.80;99.90;;;;;;5053896;28;20045;-71
2021/08/14 04:23:34;;;;;;;20.77;5.10;;;16.80;99.90;;;;;;5056071;28;20562;-72
2021/08/14 04:26:00;;;;;;;20.92;5.38;;;16.80;99.90;;;;;;5055343;28;20024;-72
2021/08/14 04:28:25;;;;;;;23.77;5.60;;;16.80;99.90;;;;;;5051357;28;20032;-72
2021/08/14 04:30:51;;;;;;;17.60;5.22;;;16.70;99.90;;;;;;5053554;28;20367;-73
2021/08/14 04:33:16;;;;;;;18.00;4.63;;;16.70;99.90;;;;;;5052838;28;20013;-72
2021/08/14 04:35:42;;;;;;;17.42;5.20;;;16.60;99.90;;;;;;5052950;28;20028;-74
2021/08/14 04:38:08;;;;;;;13.15;4.28;;;16.60;99.90;;;;;;5052397;28;20032;-71
2021/08/14 04:40:52;;;;;;;20.02;4.72;;;16.60;99.90;;;;;;5054015;28;20529;-72
2021/08/14 04:43:18;;;;;;;12.10;4.80;;;16.60;99.90;;;;;;5054130;28;20056;-71
2021/08/14 04:45:43;;;;;;;15.32;4.53;;;16.60;99.90;;;;;;5069713;28;20056;-71
2021/08/14 04:48:09;;;;;;;16.77;4.80;;;16.60;99.90;;;;;;5053546;28;20489;-72
2021/08/14 04:50:34;;;;;;;12.18;4.70;;;16.50;99.90;;;;;;5048630;28;20032;-72
2021/08/14 04:53:00;;;;;;;27.48;5.47;;;16.50;99.90;;;;;;5053377;28;20021;-70
2021/08/14 04:55:26;;;;;;;17.42;5.38;;;16.40;99.90;;;;;;5051981;28;20036;-72
2021/08/14 04:57:51;;;;;;;20.42;4.70;;;16.40;99.90;;;;;;5051864;28;20025;-71
2021/08/14 05:00:17;;;;;;;22.40;4.53;;;16.40;99.90;;;;;;5052474;28;20021;-72
2021/08/14 05:02:43;;;;;;;11.35;4.32;;;16.40;99.90;;;;;;5052810;28;20079;-72
2021/08/14 05:05:09;;;;;;;13.93;5.25;;;16.40;99.90;;;;;;5052689;28;20040;-71
2021/08/14 05:07:35;;;;;;;14.98;5.55;;;16.40;99.90;;;;;;5053092;28;20036;-71
2021/08/14 05:10:00;;;;;;;19.52;5.28;;;16.40;99.90;;;;;;5052301;28;20107;-71
2021/08/14 05:12:26;;;;;;;21.23;5.00;;;16.40;99.90;;;;;;5052952;28;20485;-72
2021/08/14 05:14:52;;;;;;;14.73;4.35;;;16.40;99.90;;;;;;5052712;28;20480;-72
2021/08/14 05:17:17;;;;;;;12.80;4.65;;;16.40;99.90;;;;;;5053964;28;20107;-71
2021/08/14 05:19:43;;;;;;;12.25;3.53;;;16.50;99.90;;;;;;5051137;28;20021;-72
2021/08/14 05:22:08;;;;;;;13.75;4.35;;;16.40;99.90;;;;;;5051906;28;20025;-71
2021/08/14 05:24:34;;;;;;;11.45;4.63;;;16.40;99.90;;;;;;5052463;28;20053;-72
2021/08/14 05:27:00;;;;;;;15.30;5.00;;;16.50;99.90;;;;;;5052454;28;20476;-71
2021/08/14 05:29:25;;;;;;;17.85;5.22;;;16.50;99.90;;;;;;5052205;28;20029;-71
2021/08/14 05:31:51;;;;;;;19.55;5.30;;;16.50;99.90;;;;;;5050752;28;20029;-71
2021/08/14 05:34:16;;;;;;;23.38;5.57;;;16.50;99.90;;;;;;5051166;28;20029;-71
2021/08/14 05:36:42;;;;;;;18.30;4.82;;;16.50;99.90;;;;;;5052089;28;20163;-71
2021/08/14 05:39:08;;;;;;;20.67;6.55;;;16.60;99.90;;;;;;5051211;28;20017;-72
2021/08/14 05:41:39;;;;;;;13.52;4.70;;;16.60;99.90;;;;;;5051272;28;20033;-72
2021/08/14 05:44:05;;;;;;;18.42;5.75;;;16.60;99.90;;;;;;5051302;28;20025;-71
2021/08/14 05:46:31;;;;;;;24.25;5.88;;;16.60;99.90;;;;;;5051322;28;20068;-72
2021/08/14 05:48:56;;;;;;;13.38;6.50;;;16.60;99.90;;;;;;5052113;28;20033;-74
2021/08/14 05:51:24;;;;;;;21.33;6.03;;;16.70;99.90;;;;;;5050771;28;20080;-72
2021/08/14 05:53:49;;;;;;;22.52;5.38;;;16.70;99.90;;;;;;5048873;28;20032;-72
2021/08/14 05:56:15;;;;;;;21.42;5.57;;;16.70;99.90;;;;;;5052249;28;20033;-72
2021/08/14 05:58:40;;;;;;;15.05;4.78;;;16.80;99.90;;;;;;5049870;28;20477;-75
2021/08/14 06:01:07;;;;;;;18.85;6.28;;;16.80;99.90;;;;;;5047983;28;20037;-72
2021/08/14 06:03:34;;;;;;;13.38;5.60;;;16.90;99.90;;;;;;5051764;28;20037;-72
2021/08/14 06:06:00;;;;;;;14.52;6.25;;;16.90;99.90;;;;;;5049056;28;20214;-73
2021/08/14 06:08:26;;;;;;;20.15;5.63;;;16.90;99.90;;;;;;5048699;28;20047;-71
2021/08/14 06:10:52;;;;;;;19.58;5.45;;;17.00;99.90;;;;;;5048473;28;20527;-71
2021/08/14 06:13:17;;;;;;;12.73;5.25;;;17.10;99.90;;;;;;5050890;28;20025;-71
2021/08/14 06:15:43;;;;;;;14.52;6.47;;;17.20;99.90;;;;;;5051188;28;20025;-71
2021/08/14 06:18:11;;;;;;;22.92;6.53;;;17.20;99.90;;;;;;5050026;28;20057;-72
2021/08/14 06:20:37;;;;;;;19.63;7.57;;;17.30;99.90;;;;;;5051209;28;20029;-71
2021/08/14 06:23:02;;;;;;;31.15;8.00;;;17.30;99.90;;;;;;5046002;28;20032;-71
2021/08/14 06:25:28;;;;;;;17.40;6.25;;;17.40;99.90;;;;;;5048664;28;20404;-71
2021/08/14 06:27:54;;;;;;;27.85;7.35;;;17.40;99.90;;;;;;5055444;28;20053;-72
2021/08/14 06:30:19;;;;;;;27.90;7.28;;;17.50;99.90;;;;;;5047087;28;20040;-71
2021/08/14 06:32:45;;;;;;;24.02;7.97;;;17.60;99.90;;;;;;5053352;28;20159;-71
2021/08/14 06:35:11;;;;;;;26.13;7.50;;;17.60;99.90;;;;;;5051508;28;20021;-72
2021/08/14 06:37:44;;;;;;;23.02;9.55;;;17.60;99.90;;;;;;5053572;28;20481;-71
2021/08/14 06:40:11;;;;;;;37.83;10.38;;;17.50;99.90;;;;;;5052227;28;20116;-71
2021/08/14 06:42:37;;;;;;;35.25;10.60;;;17.40;99.90;;;;;;5050137;28;20040;-71
2021/08/14 06:45:03;;;;;;;40.38;11.32;;;17.30;99.90;;;;;;5049927;28;20051;-71
2021/08/14 06:47:29;;;;;;;31.00;11.85;;;17.20;99.90;;;;;;5054589;28;20028;-71
2021/08/14 06:49:55;;;;;;;41.80;12.10;;;17.20;99.90;;;;;;5049679;28;20039;-72
2021/08/14 06:52:20;;;;;;;40.95;13.40;;;17.10;99.90;;;;;;5046827;28;20449;-72
2021/08/14 06:54:46;;;;;;;35.72;10.90;;;17.10;99.90;;;;;;5054031;28;20496;-73
2021/08/14 06:57:12;;;;;;;46.17;11.80;;;17.10;99.90;;;;;;5043568;28;20033;-72
2021/08/14 06:59:37;;;;;;;46.47;13.77;;;17.20;99.90;;;;;;5053328;28;20543;-71
2021/08/14 07:02:03;;;;;;;42.80;12.70;;;17.10;99.90;;;;;;5045989;28;20032;-71
2021/08/14 07:04:29;;;;;;;44.10;12.77;;;17.20;99.90;;;;;;5044785;28;20497;-70
2021/08/14 07:06:54;;;;;;;52.67;15.23;;;17.20;99.90;;;;;;5050261;28;20037;-72
2021/08/14 07:09:21;;;;;;;49.00;14.35;;;17.20;99.90;;;;;;5052720;28;20035;-71
2021/08/14 07:11:46;;;;;;;43.47;13.30;;;17.30;99.90;;;;;;5050645;28;20053;-72
2021/08/14 07:14:12;;;;;;;42.72;13.10;;;17.20;99.90;;;;;;5056266;28;20048;-72
2021/08/14 07:16:38;;;;;;;58.75;14.25;;;17.30;99.90;;;;;;5053983;28;20116;-72
2021/08/14 07:19:04;;;;;;;52.92;13.93;;;17.40;99.90;;;;;;5054474;28;20056;-72
2021/08/14 07:21:30;;;;;;;45.50;15.98;;;17.40;99.90;;;;;;5054798;28;20060;-73
2021/08/14 07:23:55;;;;;;;56.20;16.33;;;17.40;99.90;;;;;;5057913;28;20447;-73
2021/08/14 07:26:22;;;;;;;55.38;14.48;;;17.40;99.90;;;;;;5050364;28;20072;-72
2021/08/14 07:28:49;;;;;;;60.37;15.63;;;17.50;99.90;;;;;;5048648;28;20024;-75
2021/08/14 07:31:15;;;;;;;45.42;14.95;;;17.50;99.90;;;;;;5056318;28;20063;-72
2021/08/14 07:33:40;;;;;;;56.85;15.65;;;17.60;99.90;;;;;;5049826;28;20021;-73
2021/08/14 07:36:07;;;;;;;61.97;17.42;;;17.70;99.90;;;;;;5045213;28;20501;-73
2021/08/14 07:38:33;;;;;;;48.33;16.40;;;17.80;99.90;;;;;;5047969;28;20466;-73
2021/08/14 07:40:59;;;;;;;58.78;16.33;;;17.90;99.90;;;;;;5052213;28;20039;-73
2021/08/14 07:43:24;;;;;;;53.83;17.27;;;18.00;99.90;;;;;;5054229;28;20029;-73
2021/08/14 07:45:50;;;;;;;52.53;16.73;;;18.00;99.90;;;;;;5053457;28;20021;-73
2021/08/14 07:48:15;;;;;;;57.88;17.33;;;18.20;99.90;;;;;;5058375;28;20473;-73
2021/08/14 07:50:41;;;;;;;50.17;18.27;;;18.20;99.90;;;;;;5058800;28;20049;-72
2021/08/14 07:53:07;;;;;;;42.70;16.77;;;18.20;99.90;;;;;;5056665;28;20048;-72
2021/08/14 07:55:33;;;;;;;50.22;16.25;;;18.30;99.90;;;;;;5046122;28;20017;-72
2021/08/14 07:58:00;;;;;;;45.83;16.15;;;18.40;99.90;;;;;;5051855;28;20401;-72
2021/08/14 08:00:26;;;;;;;54.85;18.92;;;18.50;99.90;;;;;;5047280;28;20462;-73
2021/08/14 08:02:52;;;;;;;41.50;18.55;;;18.60;99.90;;;;;;5052212;28;20029;-72
2021/08/14 08:05:20;;;;;;;52.25;19.75;;;18.80;99.90;;;;;;5057932;28;20147;-73
2021/08/14 08:07:47;;;;;;;59.05;19.15;;;18.90;99.90;;;;;;5056027;28;20025;-73
2021/08/14 08:10:15;;;;;;;49.15;16.98;;;18.90;99.90;;;;;;5044145;28;20557;-71
2021/08/14 08:12:41;;;;;;;41.53;17.05;;;19.00;99.90;;;;;;5057328;28;20042;-74
2021/08/14 08:15:08;;;;;;;44.83;16.58;;;19.10;99.90;;;;;;5055588;28;20022;-72
2021/08/14 08:17:34;;;;;;;39.55;17.38;;;19.20;99.90;;;;;;5060270;28;20446;-72
2021/08/14 08:20:01;;;;;;;53.92;18.00;;;19.30;99.90;;;;;;5053725;28;20100;-73
2021/08/14 08:22:27;;;;;;;38.65;14.75;;;19.40;99.90;;;;;;5053153;28;20033;-82
2021/08/14 08:24:53;;;;;;;42.47;17.05;;;19.50;99.90;;;;;;5047910;28;20381;-72
2021/08/14 08:27:18;;;;;;;35.42;13.90;;;19.50;99.90;;;;;;5050810;28;20029;-72
2021/08/14 08:29:44;;;;;;;37.55;14.65;;;19.50;99.90;;;;;;5047466;28;20026;-73
2021/08/14 08:32:10;;;;;;;40.50;13.20;;;19.60;99.90;;;;;;5054151;28;20029;-72
2021/08/14 08:34:36;;;;;;;38.60;11.98;;;19.50;99.90;;;;;;5050020;28;20032;-72
2021/08/14 08:37:02;;;;;;;47.15;13.75;;;19.50;99.90;;;;;;5053695;28;20503;-72
2021/08/14 08:39:29;;;;;;;37.55;13.73;;;19.60;99.90;;;;;;5050996;28;20021;-72
2021/08/14 08:41:56;;;;;;;27.45;11.40;;;19.70;99.90;;;;;;5052984;28;20028;-73
2021/08/14 08:44:22;;;;;;;30.38;11.85;;;20.00;99.90;;;;;;5046358;28;20048;-73
2021/08/14 08:46:48;;;;;;;40.33;13.55;;;20.30;99.90;;;;;;5056109;28;20112;-73
2021/08/14 08:49:16;;;;;;;32.22;12.48;;;20.60;99.90;;;;;;5054824;28;20151;-74
2021/08/14 08:51:42;;;;;;;40.10;11.27;;;20.90;99.90;;;;;;5050334;28;20033;-73
2021/08/14 08:54:11;;;;;;;35.00;11.90;;;21.20;99.90;;;;;;5048648;28;20021;-72
2021/08/14 08:56:37;;;;;;;31.15;9.90;;;21.40;99.90;;;;;;5052778;28;20029;-72
2021/08/14 08:59:02;;;;;;;43.25;10.50;;;21.50;99.90;;;;;;5053595;28;20111;-73
2021/08/14 09:01:29;;;;;;;27.23;11.27;;;21.50;99.90;;;;;;5053931;28;20447;-72
2021/08/14 09:04:14;;;;;;;36.38;10.07;;;21.40;99.90;;;;;;5053610;28;20528;-72
2021/08/14 09:06:41;;;;;;;30.38;10.88;;;21.30;99.90;;;;;;5050073;28;20117;-72
2021/08/14 09:09:08;;;;;;;28.52;10.40;;;21.20;99.90;;;;;;5054593;28;20071;-72
2021/08/14 09:11:34;;;;;;;;;;;21.20;99.90;;;;;;5056426;28;20094;-71
2021/08/14 09:14:06;;;;;;;30.83;11.48;;;21.00;99.90;;;;;;5054824;28;19913;-71
2021/08/14 09:16:31;;;;;;;25.02;10.38;;;20.80;99.90;;;;;;5053029;28;20033;-72
2021/08/14 09:18:59;;;;;;;36.28;13.20;;;20.70;99.90;;;;;;5039313;28;20079;-73
2021/08/14 09:21:42;;;;;;;31.67;11.20;;;20.70;99.90;;;;;;5052838;28;20061;-72
2021/08/14 09:24:08;;;;;;;42.38;11.60;;;20.60;99.90;;;;;;5053970;28;20492;-72
2021/08/14 09:26:46;;;;;;;33.70;11.43;;;20.60;99.90;;;;;;5054548;28;20029;-71
2021/08/14 09:29:12;;;;;;;33.00;12.00;;;20.70;99.90;;;;;;5052496;28;20029;-71
2021/08/14 09:31:50;;;;;;;32.03;12.23;;;20.80;99.90;;;;;;5048468;28;20033;-71
2021/08/14 09:34:21;;;;;;;33.65;14.15;;;20.90;99.90;;;;;;5050604;28;20543;-71
2021/08/14 09:37:10;;;;;;;28.83;12.77;;;21.00;99.90;;;;;;5050499;28;20087;-71
2021/08/14 09:39:56;;;;;;;31.58;12.25;;;21.20;99.90;;;;;;5052604;28;20029;-71
2021/08/14 09:42:23;;;;;;;34.57;13.37;;;21.70;99.90;;;;;;5050302;28;20028;-72
2021/08/14 09:45:14;;;;;;;35.08;13.77;;;22.10;99.90;;;;;;5053242;28;20358;-71
2021/08/14 09:47:44;;;;;;;29.33;11.85;;;22.10;99.90;;;;;;5052302;28;20037;-71
2021/08/14 09:50:11;;;;;;;30.45;11.30;;;22.10;99.90;;;;;;5053649;28;20029;-72
2021/08/14 09:52:37;;;;;;;28.13;10.23;;;22.30;99.90;;;;;;5050549;28;20021;-71
2021/08/14 09:55:04;;;;;;;24.67;11.05;;;22.50;99.90;;;;;;5052612;28;20025;-72
2021/08/14 09:57:30;;;;;;;27.63;10.73;;;22.70;99.90;;;;;;5036401;28;20520;-73
2021/08/14 09:59:57;;;;;;;29.88;10.98;;;22.70;99.90;;;;;;5053818;28;20025;-73
2021/08/14 10:02:29;;;;;;;26.25;10.07;;;22.60;99.90;;;;;;5043849;28;20139;-72
2021/08/14 10:04:57;;;;;;;29.48;11.02;;;22.60;99.90;;;;;;5045963;28;20049;-73
2021/08/14 10:07:24;;;;;;;26.83;10.48;;;22.40;99.90;;;;;;5038983;28;20458;-72
2021/08/14 10:09:51;;;;;;;21.77;9.48;;;22.40;99.90;;;;;;5063159;28;20388;-71
2021/08/14 10:12:18;;;;;;;28.47;10.17;;;22.50;99.90;;;;;;5053279;28;20024;-71
2021/08/14 10:14:46;;;;;;;27.70;9.77;;;22.50;99.90;;;;;;5053597;28;20280;-71
2021/08/14 10:17:15;;;;;;;27.10;10.50;;;22.50;99.90;;;;;;5053096;28;20016;-72
2021/08/14 10:19:42;;;;;;;31.85;9.48;;;22.70;99.90;;;;;;5052233;28;20013;-72
2021/08/14 10:22:09;;;;;;;23.75;9.50;;;23.00;99.90;;;;;;5051835;28;20091;-72
2021/08/14 10:24:43;;;;;;;28.10;10.93;;;23.30;99.90;;;;;;5051068;28;20385;-73
2021/08/14 10:27:12;;;;;;;30.55;9.75;;;23.40;99.90;;;;;;5050120;28;20036;-71
2021/08/14 10:29:53;;;;;;;22.70;9.15;;;23.60;99.90;;;;;;5052998;28;20036;-72
2021/08/14 10:32:31;;;;;;;19.75;9.07;;;23.60;99.90;;;;;;5051628;28;20074;-71
2021/08/14 10:35:12;;;;;;;21.67;8.75;;;23.30;99.90;;;;;;5054210;28;20048;-71
2021/08/14 10:37:39;;;;;;;25.90;8.93;;;23.00;99.90;;;;;;5052891;28;20025;-71
2021/08/14 10:40:06;;;;;;;22.52;8.82;;;22.90;99.90;;;;;;5051094;28;20481;-72
2021/08/14 10:42:48;;;;;;;26.97;10.10;;;22.90;99.90;;;;;;5048415;28;20037;-72
2021/08/14 10:45:16;;;;;;;24.92;9.10;;;22.80;99.90;;;;;;5033452;28;20783;-71
2021/08/14 10:47:45;;;;;;;26.45;9.80;;;22.90;99.90;;;;;;5049403;28;20037;-71
2021/08/14 10:50:30;;;;;;;29.15;10.52;;;22.90;99.90;;;;;;5045929;28;20021;-71
2021/08/14 10:53:11;;;;;;;24.85;10.18;;;22.90;99.90;;;;;;5052453;28;20029;-71
2021/08/14 10:55:38;;;;;;;26.40;10.52;;;22.90;99.90;;;;;;5055034;28;20071;-71
2021/08/14 10:58:22;;;;;;;24.52;10.10;;;22.80;99.90;;;;;;5050591;28;20039;-71
2021/08/14 11:00:48;;;;;;;23.50;9.65;;;22.60;99.90;;;;;;5057541;28;20032;-71
2021/08/14 11:03:14;;;;;;;31.92;10.20;;;22.50;99.90;;;;;;5049345;28;20112;-71
2021/08/14 11:05:45;;;;;;;32.25;11.25;;;22.30;99.90;;;;;;5049690;28;20087;-73
2021/08/14 11:08:29;;;;;;;27.85;9.23;;;22.00;99.90;;;;;;5037727;28;20095;-71
2021/08/14 11:10:55;;;;;;;32.53;11.02;;;21.80;99.90;;;;;;5066558;28;20469;-72
2021/08/14 11:13:47;;;;;;;23.45;11.15;;;21.70;99.90;;;;;;5048221;28;20055;-71
2021/08/14 11:16:51;;;;;;;21.38;8.32;;;21.60;99.90;;;;;;5045676;28;20033;-71
2021/08/14 11:19:41;;;;;;;28.15;8.52;;;21.60;99.90;;;;;;5051049;28;20041;-72
2021/08/14 11:22:40;;;;;;;24.85;9.32;;;21.60;99.90;;;;;;5039575;28;20088;-71
2021/08/14 11:25:20;;;;;;;27.73;9.73;;;21.60;99.90;;;;;;5052014;28;20453;-72
2021/08/14 11:28:18;;;;;;;27.05;7.15;;;21.60;99.90;;;;;;5051598;28;20400;-71
2021/08/14 11:30:48;;;;;;;28.13;7.93;;;21.50;99.90;;;;;;5047416;28;20041;-71
2021/08/14 11:33:15;;;;;;;22.40;7.65;;;21.50;99.90;;;;;;5047180;28;20075;-72
2021/08/14 11:35:42;;;;;;;26.63;6.78;;;21.50;99.90;;;;;;5049407;28;20033;-71
2021/08/14 11:38:12;;;;;;;18.07;5.30;;;21.60;99.90;;;;;;5052714;28;20024;-72
2021/08/14 11:40:43;;;;;;;17.52;6.55;;;21.70;99.90;;;;;;5048216;28;20295;-73
2021/08/14 11:43:10;;;;;;;21.08;7.45;;;21.60;99.90;;;;;;5053961;28;20024;-72
2021/08/14 11:45:39;;;;;;;19.25;6.50;;;21.60;99.90;;;;;;5048513;28;20067;-72
2021/08/14 11:48:13;;;;;;;18.92;5.68;;;21.60;99.90;;;;;;5059838;28;20033;-72
2021/08/14 11:50:44;;;;;;;21.75;5.88;;;21.70;99.90;;;;;;5057825;28;20112;-72
2021/08/14 11:53:21;;;;;;;16.77;5.75;;;21.90;99.90;;;;;;5051700;28;20039;-73
2021/08/14 11:55:47;;;;;;;;;;;22.10;99.90;;;;;;5049652;28;20025;-71
2021/08/14 11:58:12;;;;;;;23.73;5.78;;;22.30;99.90;;;;;;5041511;28;19962;-73
2021/08/14 12:00:38;;;;;;;23.33;6.45;;;22.40;99.90;;;;;;5063349;28;20021;-72
2021/08/14 12:03:17;;;;;;;21.52;4.47;;;22.30;99.90;;;;;;5070438;28;20436;-71
2021/08/14 12:05:48;;;;;;;11.85;3.85;;;22.30;99.90;;;;;;5056564;28;20162;-71
2021/08/14 12:08:35;;;;;;;12.07;3.75;;;22.10;99.90;;;;;;5055524;28;20568;-72
2021/08/14 12:11:02;;;;;;;;;;;22.20;99.90;;;;;;5059039;28;20466;-71
2021/08/14 12:13:28;;;;;;;10.40;3.85;;;22.50;99.90;;;;;;5055054;28;20008;-71
2021/08/14 12:16:15;;;;;;;13.65;3.50;;;22.70;99.90;;;;;;5060725;28;20021;-71
2021/08/14 12:18:45;;;;;;;18.88;4.43;;;22.90;99.90;;;;;;5053672;28;20519;-69
2021/08/14 12:21:12;;;;;;;13.75;4.18;;;23.00;99.90;;;;;;5055240;28;20438;-71
2021/08/14 12:23:39;;;;;;;;;;;23.20;99.90;;;;;;5055020;28;20025;-73
2021/08/14 12:26:23;;;;;;;10.02;3.58;;;23.40;99.90;;;;;;5055389;28;20315;-71
2021/08/14 12:29:09;;;;;;;5.88;3.10;;;23.60;99.90;;;;;;5054178;28;20116;-73
2021/08/14 12:31:55;;;;;;;12.23;2.92;;;24.00;99.90;;;;;;5052991;28;20025;-72
2021/08/14 12:34:32;;;;;;;7.88;2.67;;;24.20;99.90;;;;;;5065890;28;20043;-72
2021/08/14 12:37:06;;;;;;;13.75;3.08;;;24.40;99.90;;;;;;5057372;28;20536;-72
2021/08/14 12:39:56;;;;;;;6.25;2.60;;;24.60;99.90;;;;;;5060065;28;20047;-75